Time;durP1;ratioP1;P1;durP2;ratioP2;P2;SDS_P1;SDS_P2;PMS_P1;PMS_P2;Temp;Humidity;BMP_temperature;BMP_pressure;BME280_temperature;BME280_humidity;BME280_pressure;Samples;Min_cycle;Max_cycle;Signal;HPM_P1;HPM_P2
2022/08/23 00:00:09;;;;;;;;;;;;;;;23.04;57.46;101096.88;1060902;27;727;-68
2022/08/23 00:00:59;;;;;;;;;;;;;;;23.04;57.37;101092.28;1061199;27;688;-67
2022/08/23 00:01:50;;;;;;;;;;;;;;;23.02;57.83;101088.88;1059888;27;645;-68
2022/08/23 00:02:41;;;;;;;;;;;;;;;23.03;57.55;101089.72;1060541;27;1909;-67
2022/08/23 00:03:31;;;;;;;;;;;;;;;23.03;57.70;101096.00;1061171;27;629;-67
2022/08/23 00:04:22;;;;;;;;;;;;;;;23.03;57.79;101087.84;1059837;27;731;-67
2022/08/23 00:05:12;;;;;;;;;;;;;;;23.03;57.40;101089.72;1060253;27;641;-67
2022/08/23 00:06:03;;;;;;;;;;;;;;;23.02;57.83;101082.59;1057665;28;649;-67
2022/08/23 00:06:53;;;;;;;;;;;;;;;23.03;57.40;101085.16;1060849;27;668;-67
2022/08/23 00:07:44;;;;;;;;;;;;;;;23.03;57.51;101085.16;1064355;27;626;-67
2022/08/23 00:08:34;;;;;;;;;;;;;;;23.03;57.74;101089.72;1056742;28;739;-66
2022/08/23 00:09:25;;;;;;;;;;;;;;;23.02;57.81;101088.03;1057659;28;680;-66
2022/08/23 00:10:15;;;;;;;;;;;;;;;23.02;57.35;101086.16;1062124;27;692;-66
2022/08/23 00:11:06;;;;;;;;;;;;;;;23.01;57.37;101081.75;1059723;27;677;-67
2022/08/23 00:11:56;;;;;;;;;;;;;;;23.02;57.42;101086.16;1061599;27;748;-67
2022/08/23 00:12:46;;;;;;;;;;;;;;;23.00;57.64;101088.19;1052472;28;694;-67
2022/08/23 00:13:37;;;;;;;;;;;;;;;22.98;57.85;101087.53;1053230;28;641;-67
2022/08/23 00:14:27;;;;;;;;;;;;;;;22.98;57.35;101092.97;1053270;28;659;-67
2022/08/23 00:15:18;;;;;;;;;;;;;;;22.97;57.92;101083.13;1053141;28;637;-67
2022/08/23 00:16:08;;;;;;;;;;;;;;;22.98;57.72;101092.13;1053204;28;657;-67
2022/08/23 00:16:59;;;;;;;;;;;;;;;22.99;57.47;101082.94;1052745;28;637;-67
2022/08/23 00:17:49;;;;;;;;;;;;;;;23.00;57.84;101085.50;1053142;28;656;-67
2022/08/23 00:18:40;;;;;;;;;;;;;;;22.99;57.69;101089.22;1053135;28;622;-67
2022/08/23 00:19:30;;;;;;;;;;;;;;;22.98;57.52;101084.81;1052759;28;656;-67
2022/08/23 00:20:21;;;;;;;;;;;;;;;22.97;57.39;101080.41;1053043;28;633;-68
2022/08/23 00:21:12;;;;;;;;;;;;;;;22.97;57.38;101084.97;1053131;28;641;-68
2022/08/23 00:22:02;;;;;;;;;;;;;;;22.97;57.83;101091.28;1052579;28;641;-67
2022/08/23 00:22:53;;;;;;;;;;;;;;;22.97;57.66;101080.41;1053112;28;637;-67
2022/08/23 00:23:43;;;;;;;;;;;;;;;22.95;57.76;101082.44;1053278;28;716;-68
2022/08/23 00:24:33;;;;;;;;;;;;;;;22.96;58.00;101083.28;1053065;28;681;-67
2022/08/23 00:25:24;;;;;;;;;;;;;;;22.95;57.61;101089.75;1053190;28;622;-67
2022/08/23 00:26:14;;;;;;;;;;;;;;;22.94;57.76;101085.31;1053101;28;677;-68
2022/08/23 00:27:06;;;;;;;;;;;;;;;22.94;57.56;101085.31;1053097;28;645;-67
2022/08/23 00:27:56;;;;;;;;;;;;;;;22.94;57.93;101080.75;1052470;28;732;-67
2022/08/23 00:28:47;;;;;;;;;;;;;;;22.93;57.44;101087.19;1053104;28;724;-67
2022/08/23 00:29:37;;;;;;;;;;;;;;;22.92;57.84;101085.53;1053227;28;633;-67
2022/08/23 00:30:28;;;;;;;;;;;;;;;22.92;57.71;101082.81;1052995;28;713;-67
2022/08/23 00:31:18;;;;;;;;;;;;;;;22.92;57.61;101077.38;1053236;28;654;-67
2022/08/23 00:32:09;;;;;;;;;;;;;;;22.91;57.53;101082.97;1053146;28;700;-67
2022/08/23 00:32:59;;;;;;;;;;;;;;;22.89;57.64;101079.59;1053194;28;699;-67
2022/08/23 00:33:49;;;;;;;;;;;;;;;22.92;58.30;101081.97;1052914;28;776;-67
2022/08/23 00:34:40;;;;;;;;;;;;;;;22.90;57.92;101079.41;1052784;28;806;-67
2022/08/23 00:35:30;;;;;;;;;;;;;;;22.90;58.11;101078.56;1053098;28;641;-67
2022/08/23 00:36:21;;;;;;;;;;;;;;;22.90;57.77;101079.41;1053101;28;680;-68
2022/08/23 00:37:11;;;;;;;;;;;;;;;22.88;57.67;101080.59;1053224;28;735;-67
2022/08/23 00:38:01;;;;;;;;;;;;;;;22.88;58.10;101076.03;1052964;28;609;-67
2022/08/23 00:38:52;;;;;;;;;;;;;;;22.89;57.90;101077.72;1053010;28;612;-68
2022/08/23 00:39:43;;;;;;;;;;;;;;;22.86;57.75;101078.06;1053161;28;703;-67
2022/08/23 00:40:34;;;;;;;;;;;;;;;22.87;57.96;101077.03;1052568;28;1286;-67
2022/08/23 00:41:24;;;;;;;;;;;;;;;22.84;58.22;101080.94;1052415;28;640;-67
2022/08/23 00:48:05;;;;;;;;;;;;;;;22.83;58.11;101081.13;1040134;28;954;-67
2022/08/23 00:48:55;;;;;;;;;;;;;;;22.81;57.85;101081.28;1040800;28;645;-67
2022/08/23 00:49:46;;;;;;;;;;;;;;;22.82;57.72;101073.97;1040806;28;630;-67
2022/08/23 00:50:36;;;;;;;;;;;;;;;22.83;58.13;101073.81;1040805;28;724;-67
2022/08/23 00:51:27;;;;;;;;;;;;;;;22.83;58.17;101078.41;1040707;28;630;-67
2022/08/23 00:52:17;;;;;;;;;;;;;;;22.82;57.89;101076.69;1036088;28;618;-67
2022/08/23 00:53:08;;;;;;;;;;;;;;;22.82;58.06;101080.28;1037174;28;684;-67
2022/08/23 00:54:00;;;;;;;;;;;;;;;22.82;58.07;101076.69;1040747;28;677;-67
2022/08/23 00:54:51;;;;;;;;;;;;;;;22.80;58.16;101079.59;1040754;28;626;-67
2022/08/23 00:55:42;;;;;;;;;;;;;;;22.79;57.81;101082.47;1040628;28;647;-67
2022/08/23 00:56:32;;;;;;;;;;;;;;;22.79;58.23;101077.03;1040682;28;645;-67
2022/08/23 00:57:22;;;;;;;;;;;;;;;22.79;58.26;101077.03;1040703;28;681;-67
2022/08/23 00:58:13;;;;;;;;;;;;;;;22.80;58.10;101081.47;1036091;28;638;-67
2022/08/23 00:59:03;;;;;;;;;;;;;;;22.79;58.35;101077.03;1036141;28;709;-67
2022/08/23 00:59:54;;;;;;;;;;;;;;;22.78;57.90;101076.19;1040703;28;637;-67
2022/08/23 01:00:44;;;;;;;;;;;;;;;22.77;58.19;101079.94;1040255;28;835;-66
2022/08/23 01:01:35;;;;;;;;;;;;;;;22.76;57.98;101074.63;1040662;28;610;-66
2022/08/23 01:02:25;;;;;;;;;;;;;;;22.78;58.18;101080.78;1040613;28;1890;-66
2022/08/23 01:03:16;;;;;;;;;;;;;;;22.75;58.28;101081.94;1040688;28;650;-66
2022/08/23 01:04:06;;;;;;;;;;;;;;;22.76;58.24;101074.63;1040566;28;1062;-66
2022/08/23 01:04:57;;;;;;;;;;;;;;;22.77;58.33;101079.09;1040710;28;649;-66
2022/08/23 01:05:48;;;;;;;;;;;;;;;22.76;58.31;101078.19;1040653;28;890;-66
2022/08/23 01:06:38;;;;;;;;;;;;;;;22.75;58.29;101076.50;1040765;28;614;-66
2022/08/23 01:07:28;;;;;;;;;;;;;;;22.75;58.41;101078.41;1036142;28;706;-66
2022/08/23 01:08:19;;;;;;;;;;;;;;;22.74;58.22;101084.84;1036568;28;638;-66
2022/08/23 01:09:09;;;;;;;;;;;;;;;22.73;58.14;101078.56;1040722;28;682;-67
2022/08/23 01:10:00;;;;;;;;;;;;;;;22.74;58.19;101082.13;1041048;28;692;-66
2022/08/23 01:10:51;;;;;;;;;;;;;;;22.74;58.41;101071.28;1041543;28;797;-67
2022/08/23 01:11:41;;;;;;;;;;;;;;;22.72;58.36;101081.47;1041553;28;669;-67
2022/08/23 01:12:32;;;;;;;;;;;;;;;22.73;58.30;101080.44;1044621;28;1264;-67
2022/08/23 01:13:22;;;;;;;;;;;;;;;22.72;58.38;101081.47;1041525;28;716;-67
2022/08/23 01:14:13;;;;;;;;;;;;;;;22.71;58.10;101074.31;1041479;28;649;-66
2022/08/23 01:15:03;;;;;;;;;;;;;;;22.69;58.26;101074.50;1045099;28;771;-67
2022/08/23 01:15:54;;;;;;;;;;;;;;;22.68;58.53;101074.66;1046260;28;641;-67
2022/08/23 01:16:44;;;;;;;;;;;;;;;22.69;58.30;101077.22;1046147;28;665;-67
2022/08/23 01:17:35;;;;;;;;;;;;;;;22.69;58.50;101079.94;1046235;28;649;-67
2022/08/23 01:18:25;;;;;;;;;;;;;;;22.68;58.45;101074.66;1041407;28;664;-67
2022/08/23 01:19:15;;;;;;;;;;;;;;;22.67;58.13;101072.97;1041409;28;668;-67
2022/08/23 01:20:06;;;;;;;;;;;;;;;22.67;58.11;101072.97;1045553;28;594;-67
2022/08/23 01:20:56;;;;;;;;;;;;;;;22.65;58.22;101072.28;1046194;28;637;-67
2022/08/23 01:21:47;;;;;;;;;;;;;;;22.66;58.60;101071.28;1046258;28;669;-67
2022/08/23 01:22:37;;;;;;;;;;;;;;;22.66;58.59;101071.28;1046048;28;1898;-67
2022/08/23 01:23:28;;;;;;;;;;;;;;;22.65;58.28;101080.44;1048714;28;965;-67
2022/08/23 01:24:18;;;;;;;;;;;;;;;22.65;58.62;101080.44;1058515;28;723;-67
2022/08/23 01:25:09;;;;;;;;;;;;;;;22.64;58.65;101079.59;1058549;28;696;-67
2022/08/23 01:25:59;;;;;;;;;;;;;;;22.65;58.62;101072.28;1058670;28;633;-67
2022/08/23 01:26:49;;;;;;;;;;;;;;;22.66;58.64;101082.13;1059588;27;1009;-67
2022/08/23 01:27:40;;;;;;;;;;;;;;;22.65;58.62;101075.84;1057473;28;629;-67
2022/08/23 01:28:30;;;;;;;;;;;;;;;22.65;58.48;101077.72;1054083;28;681;-67
2022/08/23 01:29:21;;;;;;;;;;;;;;;22.64;58.36;101076.88;1053264;28;617;-67
2022/08/23 01:30:11;;;;;;;;;;;;;;;;;;1058023;28;700;-67
2022/08/23 01:31:02;;;;;;;;;;;;;;;22.63;58.43;101074.31;1058578;28;605;-67
2022/08/23 01:31:53;;;;;;;;;;;;;;;;;;1057942;28;681;-67
2022/08/23 01:32:43;;;;;;;;;;;;;;;22.61;58.36;101073.66;1058617;28;629;-67
2022/08/23 01:33:34;;;;;;;;;;;;;;;22.60;58.32;101077.38;1053477;28;685;-67
2022/08/23 01:34:24;;;;;;;;;;;;;;;22.60;58.45;101080.09;1054083;28;743;-67
2022/08/23 01:35:15;;;;;;;;;;;;;;;22.61;58.49;101076.38;1057770;28;767;-67
2022/08/23 01:36:06;;;;;;;;;;;;;;;22.62;58.77;101080.78;1057596;28;720;-67
2022/08/23 01:36:56;;;;;;;;;;;;;;;22.62;58.65;101075.34;1057437;28;680;-68
2022/08/23 01:37:46;;;;;;;;;;;;;;;22.61;58.38;101079.94;1059240;27;545;-67
2022/08/23 01:38:37;;;;;;;;;;;;;;;22.63;58.28;101071.59;1058603;28;632;-68
2022/08/23 01:39:27;;;;;;;;;;;;;;;22.61;58.58;101073.66;1057476;28;720;-67
2022/08/23 01:40:18;;;;;;;;;;;;;;;22.61;58.43;101084.50;1055590;28;1121;-67
2022/08/23 01:41:09;;;;;;;;;;;;;;;22.61;58.56;101073.66;1054270;28;666;-67
2022/08/23 01:41:59;;;;;;;;;;;;;;;22.58;58.72;101074.84;1053787;28;736;-68
2022/08/23 01:42:49;;;;;;;;;;;;;;;22.58;58.37;101080.28;1053868;28;1902;-68
2022/08/23 01:43:40;;;;;;;;;;;;;;;22.58;58.59;101082.13;1053682;28;633;-65
2022/08/23 01:44:30;;;;;;;;;;;;;;;22.58;58.35;101073.97;1053729;28;641;-66
2022/08/23 01:45:21;;;;;;;;;;;;;;;22.57;58.61;101081.31;1053567;28;634;-67
2022/08/23 01:46:11;;;;;;;;;;;;;;;22.58;58.34;101079.41;1053749;28;601;-67
2022/08/23 01:47:02;;;;;;;;;;;;;;;22.57;58.74;101085.91;1053663;28;625;-67
2022/08/23 01:47:52;;;;;;;;;;;;;;;22.57;58.71;101083.19;1053787;28;679;-67
2022/08/23 01:48:44;;;;;;;;;;;;;;;22.58;58.79;101076.69;1054208;28;641;-67
2022/08/23 01:49:34;;;;;;;;;;;;;;;22.56;58.58;101084.19;1053663;28;673;-66
2022/08/23 01:50:25;;;;;;;;;;;;;;;22.56;58.63;101081.50;1053723;28;677;-66
2022/08/23 01:51:15;;;;;;;;;;;;;;;22.58;58.48;101079.41;1053721;28;693;-67
2022/08/23 01:52:06;;;;;;;;;;;;;;;22.57;58.65;101075.03;1053610;28;679;-66
2022/08/23 01:52:56;;;;;;;;;;;;;;;22.56;58.33;101074.19;1053726;28;631;-66
2022/08/23 01:53:46;;;;;;;;;;;;;;;22.55;58.29;101075.22;1053724;28;649;-67
2022/08/23 01:54:37;;;;;;;;;;;;;;;22.56;58.49;101076.06;1053689;28;617;-66
2022/08/23 01:55:27;;;;;;;;;;;;;;;22.54;58.67;101069.94;1053750;28;649;-66
2022/08/23 01:56:21;;;;;;;;;;;;;;;22.52;58.62;101076.38;1053673;28;689;-67
2022/08/23 01:57:11;;;;;;;;;;;;;;;22.52;58.68;101076.38;1053630;28;617;-67
2022/08/23 01:58:01;;;;;;;;;;;;;;;22.52;58.56;101073.69;1053755;28;693;-67
2022/08/23 01:58:52;;;;;;;;;;;;;;;22.52;58.56;101070.97;1053633;28;704;-67
2022/08/23 01:59:42;;;;;;;;;;;;;;;22.51;58.51;101076.56;1053724;28;669;-67
2022/08/23 02:00:34;;;;;;;;;;;;;;;22.51;58.77;101079.28;1053605;28;617;-67
2022/08/23 02:01:24;;;;;;;;;;;;;;;22.51;58.57;101074.69;1054656;28;688;-67
2022/08/23 02:02:15;;;;;;;;;;;;;;;22.50;58.50;101078.44;1053640;28;618;-67
2022/08/23 02:03:06;;;;;;;;;;;;;;;22.49;58.89;101081.31;1053572;28;691;-68
2022/08/23 02:03:56;;;;;;;;;;;;;;;22.51;58.99;101076.56;1053669;28;685;-67
2022/08/23 02:04:47;;;;;;;;;;;;;;;22.50;58.75;101073.00;1053522;28;886;-67
2022/08/23 02:05:37;;;;;;;;;;;;;;;22.48;58.59;101071.47;1053670;28;633;-67
2022/08/23 02:06:27;;;;;;;;;;;;;;;22.50;58.82;101080.28;1053600;28;709;-67
2022/08/23 02:07:18;;;;;;;;;;;;;;;22.48;58.53;101075.03;1053649;28;633;-66
2022/08/23 02:09:18;;;;;;;;;;;;;;;22.48;58.74;101085.91;1054166;28;637;-66
2022/08/23 02:10:08;;;;;;;;;;;;;;;22.48;58.80;101085.03;1049238;28;626;-67
2022/08/23 02:10:59;;;;;;;;;;;;;;;22.47;58.65;101078.75;1049750;28;642;-67
2022/08/23 02:11:49;;;;;;;;;;;;;;;22.47;58.97;101084.19;1054061;28;673;-67
2022/08/23 02:12:39;;;;;;;;;;;;;;;22.46;58.79;101078.94;1049843;28;752;-67
2022/08/23 02:13:30;;;;;;;;;;;;;;;22.46;58.56;101077.06;1049997;28;626;-67
2022/08/23 02:14:20;;;;;;;;;;;;;;;22.47;58.87;101080.63;1050063;28;727;-67
2022/08/23 02:15:11;;;;;;;;;;;;;;;22.45;58.56;101074.53;1050013;28;610;-67
2022/08/23 02:16:01;;;;;;;;;;;;;;;22.46;58.75;101071.63;1049961;28;787;-67
2022/08/23 02:16:52;;;;;;;;;;;;;;;22.47;58.92;101078.75;1049940;28;723;-67
2022/08/23 02:17:43;;;;;;;;;;;;;;;22.47;58.51;101072.47;1049997;28;621;-67
2022/08/23 02:18:33;;;;;;;;;;;;;;;22.46;58.58;101071.63;1050598;28;732;-67
2022/08/23 02:19:24;;;;;;;;;;;;;;;22.45;59.07;101069.09;1048651;28;694;-67
2022/08/23 02:20:14;;;;;;;;;;;;;;;22.46;58.62;101071.63;1049988;28;625;-67
2022/08/23 02:21:04;;;;;;;;;;;;;;;22.44;58.88;101067.38;1049857;28;668;-67
2022/08/23 02:21:55;;;;;;;;;;;;;;;22.43;59.18;101068.41;1044479;28;645;-67
2022/08/23 02:22:45;;;;;;;;;;;;;;;22.42;58.76;101067.56;1045574;28;1894;-67
2022/08/23 02:23:36;;;;;;;;;;;;;;;22.41;58.86;101068.56;1049756;28;641;-67
2022/08/23 02:24:26;;;;;;;;;;;;;;;22.40;58.78;101061.44;1049945;28;633;-67
2022/08/23 02:25:17;;;;;;;;;;;;;;;22.40;58.58;101063.31;1048630;28;680;-67
2022/08/23 02:26:07;;;;;;;;;;;;;;;22.41;59.02;101062.28;1049386;28;696;-67
2022/08/23 02:26:57;;;;;;;;;;;;;;;22.41;58.77;101065.84;1050497;28;711;-67
2022/08/23 02:27:48;;;;;;;;;;;;;;;22.42;59.03;101059.41;1049476;28;688;-67
2022/08/23 02:28:38;;;;;;;;;;;;;;;22.40;58.46;101066.88;1049950;28;676;-67
2022/08/23 02:29:29;;;;;;;;;;;;;;;22.40;59.01;101063.31;1044857;28;614;-67
2022/08/23 02:30:19;;;;;;;;;;;;;;;22.40;58.85;101075.03;1045511;28;646;-66
2022/08/23 02:31:10;;;;;;;;;;;;;;;22.39;58.96;101076.03;1045448;28;680;-67
2022/08/23 02:32:00;;;;;;;;;;;;;;;22.40;58.70;101066.03;1049877;28;873;-66
2022/08/23 02:32:50;;;;;;;;;;;;;;;22.40;58.80;101074.19;1048961;28;641;-67
2022/08/23 02:33:41;;;;;;;;;;;;;;;22.37;58.80;101075.38;1044955;28;929;-67
2022/08/23 02:34:32;;;;;;;;;;;;;;;22.38;58.79;101079.81;1045519;28;918;-67
2022/08/23 02:35:22;;;;;;;;;;;;;;;22.39;59.11;101083.38;1049868;28;724;-67
2022/08/23 02:36:13;;;;;;;;;;;;;;;22.36;58.88;101081.84;1048702;28;669;-67
2022/08/23 02:37:03;;;;;;;;;;;;;;;22.37;59.14;101082.69;1048840;28;689;-67
2022/08/23 02:37:54;;;;;;;;;;;;;;;22.36;59.22;101081.84;1048606;28;712;-67
2022/08/23 02:38:44;;;;;;;;;;;;;;;22.37;58.87;101079.97;1048844;28;634;-67
2022/08/23 02:39:34;;;;;;;;;;;;;;;22.36;59.12;101081.84;1048864;28;646;-67
2022/08/23 02:40:25;;;;;;;;;;;;;;;22.37;59.12;101083.53;1048534;28;1092;-67
2022/08/23 02:41:16;;;;;;;;;;;;;;;22.37;59.18;101088.13;1048634;28;645;-67
2022/08/23 02:42:06;;;;;;;;;;;;;;;22.35;59.14;101082.84;1048136;28;666;-66
2022/08/23 02:42:58;;;;;;;;;;;;;;;22.36;59.25;101075.56;1048351;28;1910;-66
2022/08/23 02:43:49;;;;;;;;;;;;;;;22.35;58.83;101084.72;1048335;28;630;-66
2022/08/23 02:44:39;;;;;;;;;;;;;;;22.33;59.25;101084.03;1048774;28;638;-66
2022/08/23 02:45:30;;;;;;;;;;;;;;;22.33;58.98;101089.47;1048933;28;669;-67
2022/08/23 02:46:20;;;;;;;;;;;;;;;22.33;59.08;101087.59;1047658;28;634;-67
2022/08/23 02:47:11;;;;;;;;;;;;;;;22.34;59.15;101094.72;1051191;28;640;-67
2022/08/23 02:48:01;;;;;;;;;;;;;;;22.35;58.93;101093.72;1052978;28;672;-66
2022/08/23 02:48:52;;;;;;;;;;;;;;;22.34;59.10;101094.72;1053412;28;613;-66
2022/08/23 02:49:42;;;;;;;;;;;;;;;22.36;59.08;101083.69;1053483;28;653;-66
2022/08/23 02:50:32;;;;;;;;;;;;;;;22.35;58.84;101085.56;1053443;28;716;-67
2022/08/23 02:51:23;;;;;;;;;;;;;;;22.34;59.18;101097.44;1053496;28;669;-67
2022/08/23 02:52:13;;;;;;;;;;;;;;;22.34;59.17;101093.88;1053474;28;633;-67
2022/08/23 02:53:04;;;;;;;;;;;;;;;22.32;59.28;101096.75;1052841;28;601;-67
2022/08/23 02:53:54;;;;;;;;;;;;;;;22.33;58.94;101098.47;1053195;28;685;-67
2022/08/23 02:54:45;;;;;;;;;;;;;;;22.33;58.92;101103.03;1052433;28;637;-67
2022/08/23 02:55:35;;;;;;;;;;;;;;;22.34;59.23;101104.75;1053351;28;676;-67
2022/08/23 02:56:26;;;;;;;;;;;;;;;22.31;59.04;101105.94;1052790;28;673;-66
2022/08/23 02:57:16;;;;;;;;;;;;;;;22.31;59.25;101110.50;1052532;28;634;-67
2022/08/23 02:58:07;;;;;;;;;;;;;;;22.31;59.07;101102.38;1053381;28;700;-66
2022/08/23 02:58:57;;;;;;;;;;;;;;;22.29;59.31;101097.09;1052913;28;645;-66
2022/08/23 02:59:48;;;;;;;;;;;;;;;22.29;59.06;101102.53;1053407;28;649;-67
2022/08/23 03:00:39;;;;;;;;;;;;;;;22.29;58.95;101109.81;1053097;28;614;-67
2022/08/23 03:01:29;;;;;;;;;;;;;;;22.28;59.39;101110.84;1052705;28;657;-68
2022/08/23 03:02:20;;;;;;;;;;;;;;;22.29;59.05;101109.81;1053158;28;759;-67
2022/08/23 03:03:11;;;;;;;;;;;;;;;22.28;59.13;101114.41;1053174;28;655;-68
2022/08/23 03:04:02;;;;;;;;;;;;;;;22.29;59.37;101107.97;1052677;28;634;-68
2022/08/23 03:04:52;;;;;;;;;;;;;;;22.29;59.08;101110.69;1053434;28;661;-68
2022/08/23 03:05:43;;;;;;;;;;;;;;;22.29;59.48;101107.13;1053449;28;618;-68
2022/08/23 03:06:33;;;;;;;;;;;;;;;22.28;59.39;101106.25;1053511;28;684;-68
2022/08/23 03:07:24;;;;;;;;;;;;;;;22.30;59.32;101108.81;1053422;28;653;-67
2022/08/23 03:08:14;;;;;;;;;;;;;;;22.31;59.30;101105.94;1053418;28;689;-67
2022/08/23 03:09:04;;;;;;;;;;;;;;;22.27;58.97;101101.84;1053425;28;701;-67
2022/08/23 03:09:55;;;;;;;;;;;;;;;22.28;59.34;101108.97;1053316;28;633;-67
2022/08/23 03:10:45;;;;;;;;;;;;;;;22.27;59.39;101107.28;1053411;28;664;-67
2022/08/23 03:11:36;;;;;;;;;;;;;;;22.28;59.00;101117.13;1053400;28;705;-67
2022/08/23 03:12:27;;;;;;;;;;;;;;;22.27;59.09;101112.72;1058142;27;1199;-67
2022/08/23 03:13:17;;;;;;;;;;;;;;;22.27;59.49;101109.16;1061258;27;637;-67
2022/08/23 03:14:07;;;;;;;;;;;;;;;22.26;58.95;101111.00;1060352;27;664;-67
2022/08/23 03:14:58;;;;;;;;;;;;;;;22.24;59.09;101104.91;1060034;27;630;-67
2022/08/23 03:15:48;;;;;;;;;;;;;;;22.23;59.21;101108.63;1057857;28;725;-67
2022/08/23 03:16:39;;;;;;;;;;;;;;;22.23;59.61;101111.34;1056004;28;667;-67
2022/08/23 03:17:29;;;;;;;;;;;;;;;22.23;59.44;101108.63;1060850;27;665;-67
2022/08/23 03:18:20;;;;;;;;;;;;;;;22.26;59.27;101116.44;1061186;27;740;-67
2022/08/23 03:19:10;;;;;;;;;;;;;;;22.25;59.20;101106.59;1060049;27;681;-68
2022/08/23 03:20:00;;;;;;;;;;;;;;;22.25;58.95;101111.19;1060297;27;689;-67
2022/08/23 03:20:51;;;;;;;;;;;;;;;22.24;59.32;101109.47;1057920;28;696;-67
2022/08/23 03:21:42;;;;;;;;;;;;;;;22.25;59.09;101112.03;1056344;28;771;-67
2022/08/23 03:22:32;;;;;;;;;;;;;;;22.25;59.09;101108.47;1060568;27;1902;-67
2022/08/23 03:23:22;;;;;;;;;;;;;;;22.22;59.43;101104.22;1060235;27;652;-66
2022/08/23 03:24:13;;;;;;;;;;;;;;;22.23;59.02;101114.06;1059942;27;622;-67
2022/08/23 03:25:03;;;;;;;;;;;;;;;22.23;59.41;101103.19;1060203;27;673;-67
2022/08/23 03:25:54;;;;;;;;;;;;;;;22.22;59.18;101106.94;1059838;27;693;-66
2022/08/23 03:26:44;;;;;;;;;;;;;;;22.23;59.23;101116.78;1061843;27;620;-67
2022/08/23 03:27:35;;;;;;;;;;;;;;;22.22;59.52;101106.94;1057803;28;629;-67
2022/08/23 03:28:25;;;;;;;;;;;;;;;22.21;59.39;101113.41;1056069;28;680;-67
2022/08/23 03:29:16;;;;;;;;;;;;;;;22.21;59.23;101099.84;1060783;27;688;-67
2022/08/23 03:30:06;;;;;;;;;;;;;;;22.21;59.13;101107.97;1059924;27;640;-67
2022/08/23 03:30:56;;;;;;;;;;;;;;;22.21;59.24;101104.41;1061801;27;649;-67
2022/08/23 03:31:47;;;;;;;;;;;;;;;22.22;59.00;101109.66;1059883;27;659;-67
2022/08/23 03:32:37;;;;;;;;;;;;;;;22.22;59.23;101112.34;1057821;28;637;-68
2022/08/23 03:33:28;;;;;;;;;;;;;;;22.21;59.08;101105.25;1062048;27;747;-67
2022/08/23 03:34:18;;;;;;;;;;;;;;;22.21;59.24;101112.56;1064487;27;644;-66
2022/08/23 03:35:08;;;;;;;;;;;;;;;22.21;59.10;101109.84;1056859;28;661;-67
2022/08/23 03:35:59;;;;;;;;;;;;;;;22.20;59.48;101109.00;1057719;28;696;-67
2022/08/23 03:36:50;;;;;;;;;;;;;;;22.20;59.18;101109.00;1062275;27;798;-67
2022/08/23 03:37:40;;;;;;;;;;;;;;;22.19;59.42;101115.44;1057835;28;622;-67
2022/08/23 03:38:30;;;;;;;;;;;;;;;22.20;59.37;101110.84;1056828;28;701;-66
2022/08/23 03:39:21;;;;;;;;;;;;;;;22.17;59.60;101103.91;1060435;27;676;-67
2022/08/23 03:40:11;;;;;;;;;;;;;;;22.18;59.52;101111.03;1061180;27;1292;-67
2022/08/23 03:41:02;;;;;;;;;;;;;;;22.19;59.52;101109.16;1059832;27;749;-67
2022/08/23 03:41:52;;;;;;;;;;;;;;;22.18;59.42;101105.59;1060176;27;680;-67
2022/08/23 03:42:43;;;;;;;;;;;;;;;22.18;59.31;101108.31;1059704;27;1914;-67
2022/08/23 03:43:33;;;;;;;;;;;;;;;22.20;59.28;101111.72;1061805;27;653;-67
2022/08/23 03:44:23;;;;;;;;;;;;;;;22.20;59.28;101105.44;1060146;27;625;-67
2022/08/23 03:45:14;;;;;;;;;;;;;;;22.19;59.28;101110.00;1061689;27;668;-67
2022/08/23 03:46:04;;;;;;;;;;;;;;;22.18;59.36;101108.31;1060103;27;729;-67
2022/08/23 03:46:55;;;;;;;;;;;;;;;22.17;59.65;101114.75;1061005;27;767;-67
2022/08/23 03:47:45;;;;;;;;;;;;;;;22.15;59.34;101109.50;1060137;27;748;-67
2022/08/23 03:48:36;;;;;;;;;;;;;;;22.18;59.51;101111.03;1057061;28;711;-67
2022/08/23 03:49:26;;;;;;;;;;;;;;;22.15;59.87;101106.78;1056150;28;685;-67
2022/08/23 03:50:17;;;;;;;;;;;;;;;22.17;59.62;101109.31;1060317;27;653;-67
2022/08/23 03:51:07;;;;;;;;;;;;;;;22.16;59.46;101110.34;1060044;27;644;-67
2022/08/23 03:51:59;;;;;;;;;;;;;;;22.17;59.52;101106.59;1060291;27;633;-67
2022/08/23 03:52:49;;;;;;;;;;;;;;;22.15;59.33;101109.50;1061060;27;678;-67
2022/08/23 03:53:40;;;;;;;;;;;;;;;22.15;59.41;101111.34;1060251;27;701;-67
2022/08/23 03:54:30;;;;;;;;;;;;;;;22.15;59.38;101114.06;1059263;27;634;-67
2022/08/23 03:55:20;;;;;;;;;;;;;;;22.15;59.62;101111.34;1060170;27;720;-67
2022/08/23 03:56:11;;;;;;;;;;;;;;;22.14;59.35;101115.94;1061647;27;695;-67
2022/08/23 03:57:01;;;;;;;;;;;;;;;22.16;59.54;101113.06;1060053;27;792;-67
2022/08/23 03:57:52;;;;;;;;;;;;;;;22.15;59.37;101117.63;1061674;27;735;-67
2022/08/23 03:58:42;;;;;;;;;;;;;;;22.15;59.24;101114.91;1060058;27;653;-67
2022/08/23 03:59:33;;;;;;;;;;;;;;;22.15;59.64;101123.06;1060999;27;681;-67
2022/08/23 04:00:24;;;;;;;;;;;;;;;22.16;59.55;101122.03;1060930;27;826;-67
2022/08/23 04:01:14;;;;;;;;;;;;;;;22.15;59.70;101117.63;1059837;27;693;-67
2022/08/23 04:02:05;;;;;;;;;;;;;;;22.16;59.58;101121.19;1060143;27;701;-67
2022/08/23 04:02:55;;;;;;;;;;;;;;;22.16;59.26;101113.91;1059740;27;1902;-68
2022/08/23 04:03:47;;;;;;;;;;;;;;;22.15;59.29;101119.50;1060157;27;668;-67
2022/08/23 04:04:37;;;;;;;;;;;;;;;22.15;59.24;101108.63;1061147;27;657;-68
2022/08/23 04:05:28;;;;;;;;;;;;;;;22.15;59.75;101117.63;1060174;27;630;-68
2022/08/23 04:06:18;;;;;;;;;;;;;;;22.14;59.36;101113.22;1059816;27;646;-67
2022/08/23 04:07:08;;;;;;;;;;;;;;;22.13;59.65;101113.38;1059998;27;658;-67
2022/08/23 04:08:01;;;;;;;;;;;;;;;22.11;59.53;101116.25;1061613;27;750;-67
2022/08/23 04:08:53;;;;;;;;;;;;;;;22.12;59.58;101117.97;1059983;27;708;-67
2022/08/23 04:09:43;;;;;;;;;;;;;;;22.13;59.40;101116.09;1061180;27;735;-67
2022/08/23 04:10:34;;;;;;;;;;;;;;;22.13;59.58;101114.22;1057620;28;648;-68
2022/08/23 04:11:24;;;;;;;;;;;;;;;22.14;59.77;101117.81;1055913;28;634;-67
2022/08/23 04:12:15;;;;;;;;;;;;;;;22.11;59.64;101115.41;1059686;27;1202;-67
2022/08/23 04:13:05;;;;;;;;;;;;;;;22.11;59.45;101116.25;1056733;28;673;-67
2022/08/23 04:13:56;;;;;;;;;;;;;;;22.09;59.65;101112.00;1056763;28;673;-67
2022/08/23 04:14:46;;;;;;;;;;;;;;;22.11;59.67;101115.41;1056740;28;634;-68
2022/08/23 04:15:37;;;;;;;;;;;;;;;22.11;59.41;101109.97;1056361;28;728;-66
2022/08/23 04:16:29;;;;;;;;;;;;;;;22.12;59.42;101114.41;1056079;28;724;-66
2022/08/23 04:17:20;;;;;;;;;;;;;;;22.12;59.84;101119.81;1056689;28;687;-68
2022/08/23 04:18:10;;;;;;;;;;;;;;;22.11;59.50;101120.84;1056836;28;677;-66
2022/08/23 04:19:01;;;;;;;;;;;;;;;22.10;59.61;101114.56;1052183;28;633;-68
2022/08/23 04:19:51;;;;;;;;;;;;;;;22.11;59.82;101123.56;1051212;28;673;-68
2022/08/23 04:20:42;;;;;;;;;;;;;;;22.08;59.85;101118.47;1055846;28;676;-68
2022/08/23 04:21:32;;;;;;;;;;;;;;;22.09;59.78;101129.16;1056611;28;633;-68
2022/08/23 04:22:23;;;;;;;;;;;;;;;22.10;59.60;101130.84;1052336;28;689;-67
2022/08/23 04:23:14;;;;;;;;;;;;;;;22.10;59.49;101130.00;1051252;28;709;-67
2022/08/23 04:24:04;;;;;;;;;;;;;;;22.10;59.39;101127.28;1051507;28;613;-67
2022/08/23 04:24:54;;;;;;;;;;;;;;;22.09;59.46;101122.88;1052280;28;744;-67
2022/08/23 04:25:45;;;;;;;;;;;;;;;22.11;59.72;101129.00;1056060;28;873;-67
2022/08/23 04:26:35;;;;;;;;;;;;;;;22.10;59.59;101119.13;1056736;28;677;-67
2022/08/23 04:27:26;;;;;;;;;;;;;;;22.11;59.61;101126.28;1057695;28;758;-66
2022/08/23 04:28:17;;;;;;;;;;;;;;;22.09;59.76;101122.88;1056538;28;681;-66
2022/08/23 04:29:07;;;;;;;;;;;;;;;22.08;59.56;101130.16;1056708;28;641;-66
2022/08/23 04:29:58;;;;;;;;;;;;;;;22.10;59.73;101130.00;1056542;28;634;-66
2022/08/23 04:30:48;;;;;;;;;;;;;;;22.11;59.72;101129.84;1056512;28;634;-66
2022/08/23 04:31:38;;;;;;;;;;;;;;;22.10;59.79;101130.00;1056515;28;784;-66
2022/08/23 04:32:29;;;;;;;;;;;;;;;22.08;59.59;101127.44;1052230;28;645;-67
2022/08/23 04:33:19;;;;;;;;;;;;;;;22.08;59.59;101132.88;1051016;28;653;-67